Time;durP1;ratioP1;P1;durP2;ratioP2;P2;SDS_P1;SDS_P2;PMS_P1;PMS_P2;Temp;Humidity;BMP_temperature;BMP_pressure;BME280_temperature;BME280_humidity;BME280_pressure;Samples;Min_cycle;Max_cycle;Signal;HPM_P1;HPM_P2
2022/07/06 00:02:23;;;;;;;;;;;;;;;20.34;100.00;100781.06;1714103;83;20204;-87
2022/07/06 00:04:50;;;;;;;;;;;;;;;20.30;100.00;100774.49;1714032;83;21152;-87
2022/07/06 00:07:18;;;;;;;;;;;;;;;20.27;100.00;100780.12;1713925;83;20137;-87
2022/07/06 00:09:46;;;;;;;;;;;;;;;20.23;100.00;100782.80;1713462;83;20447;-87
2022/07/06 00:12:13;;;;;;;;;;;;;;;20.22;100.00;100790.41;1713674;83;20607;-87
2022/07/06 00:14:44;;;;;;;;;;;;;;;20.21;100.00;100785.59;1713957;83;20197;-87
2022/07/06 00:17:14;;;;;;;;;;;;;;;20.21;100.00;100784.28;1714101;83;21169;-90
2022/07/06 00:19:48;;;;;;;;;;;;;;;20.22;100.00;100789.08;1714049;83;20160;-88
2022/07/06 00:22:16;;;;;;;;;;;;;;;20.20;100.00;100786.59;1713818;83;20142;-88
2022/07/06 00:24:44;;;;;;;;;;;;;;;20.17;100.00;100785.13;1713478;83;20142;-87
2022/07/06 00:27:16;;;;;;;;;;;;;;;20.11;100.00;100789.80;1714043;83;20201;-88
2022/07/06 00:29:44;;;;;;;;;;;;;;;20.05;100.00;100786.53;1713640;83;21889;-88
2022/07/06 00:32:14;;;;;;;;;;;;;;;19.98;100.00;100786.91;1712963;83;20161;-89
2022/07/06 00:34:42;;;;;;;;;;;;;;;19.91;100.00;100787.27;1713793;83;20593;-90
2022/07/06 00:37:09;;;;;;;;;;;;;;;19.84;100.00;100791.06;1713814;83;20303;-88
2022/07/06 00:39:40;;;;;;;;;;;;;;;19.81;100.00;100784.79;1713305;83;20157;-88
2022/07/06 00:42:15;;;;;;;;;;;;;;;19.77;100.00;100785.63;1713487;83;20189;-88
2022/07/06 00:44:42;;;;;;;;;;;;;;;19.74;100.00;100781.19;1711942;83;20141;-87
2022/07/06 00:47:09;;;;;;;;;;;;;;;19.70;100.00;100783.35;1713680;83;20176;-87
2022/07/06 00:56:32;;;;;;;;;;;;;;;19.51;100.00;100788.55;1721123;82;20183;-88
2022/07/06 01:03:06;;;;;;;;;;;;;;;19.40;100.00;100789.73;1719125;82;20159;-90
2022/07/06 01:05:37;;;;;;;;;;;;;;;19.26;100.00;100789.92;1721955;82;20123;-88
2022/07/06 01:08:45;;;;;;;;;;;;;;;19.15;100.00;100783.19;1725822;82;20143;-89
2022/07/06 01:14:52;;;;;;;;;;;;;;;19.03;100.00;100791.11;1722102;82;20813;-88
2022/07/06 01:17:49;;;;;;;;;;;;;;;19.01;100.00;100785.20;1721404;82;20155;-88
2022/07/06 01:24:26;;;;;;;;;;;;;;;19.01;100.00;100786.52;1721496;82;20436;-88
2022/07/06 01:27:01;;;;;;;;;;;;;;;18.99;100.00;100789.30;1720697;82;21150;-89
2022/07/06 01:37:16;;;;;;;;;;;;;;;18.94;100.00;100786.85;1716921;82;20179;-88
2022/07/06 01:39:44;;;;;;;;;;;;;;;18.93;100.00;100794.44;1718365;83;20207;-88
2022/07/06 01:42:13;;;;;;;;;;;;;;;18.89;100.00;100799.19;1716747;82;21138;-88
2022/07/06 01:44:44;;;;;;;;;;;;;;;18.88;100.00;100797.03;1728535;82;20206;-88
2022/07/06 01:47:11;;;;;;;;;;;;;;;18.91;100.00;100799.34;1732321;82;20155;-88
2022/07/06 01:49:45;;;;;;;;;;;;;;;18.95;100.00;100800.38;1728098;82;20475;-88
2022/07/06 01:52:19;;;;;;;;;;;;;;;18.96;100.00;100802.00;1732998;82;20205;-88
2022/07/06 01:54:46;;;;;;;;;;;;;;;18.96;100.00;100799.36;1725802;82;21100;-88
2022/07/06 02:04:36;;;;;;;;;;;;;;;18.91;100.00;100797.19;1715629;82;20135;-88
2022/07/06 02:10:40;;;;;;;;;;;;;;;18.91;100.00;100795.39;1728112;82;21912;-89
2022/07/06 02:13:07;;;;;;;;;;;;;;;18.90;100.00;100794.25;1728481;82;20321;-87
2022/07/06 02:16:14;;;;;;;;;;;;;;;18.88;100.00;100790.43;1727764;82;20147;-88
2022/07/06 02:19:09;;;;;;;;;;;;;;;18.87;100.00;100792.73;1733296;82;20151;-89
2022/07/06 02:25:37;;;;;;;;;;;;;;;18.84;100.00;100794.41;1727888;82;20563;-87
2022/07/06 02:28:10;;;;;;;;;;;;;;;18.85;100.00;100806.61;1729735;82;20602;-88
2022/07/06 02:31:12;;;;;;;;;;;;;;;18.84;100.00;100804.95;1728525;82;20151;-88
2022/07/06 02:34:06;;;;;;;;;;;;;;;18.86;100.00;100809.58;1726986;82;20501;-87
2022/07/06 02:40:30;;;;;;;;;;;;;;;18.96;100.00;100815.19;1733603;83;20111;-88
2022/07/06 02:43:34;;;;;;;;;;;;;;;19.04;100.00;100813.87;1730480;82;20171;-87
2022/07/06 02:46:08;;;;;;;;;;;;;;;19.05;100.00;100810.24;1719486;82;20174;-87
2022/07/06 02:48:41;;;;;;;;;;;;;;;19.04;100.00;100813.87;1714928;83;20247;-87
2022/07/06 03:02:09;;;;;;;;;;;;;;;19.09;100.00;100812.89;1713780;83;20457;-88
2022/07/06 03:04:40;;;;;;;;;;;;;;;19.16;100.00;100813.88;1712072;83;20440;-87
2022/07/06 03:07:07;;;;;;;;;;;;;;;19.22;100.00;100820.30;1712369;84;20148;-88
2022/07/06 03:09:41;;;;;;;;;;;;;;;19.26;100.00;100815.52;1713041;83;20562;-87
2022/07/06 03:12:12;;;;;;;;;;;;;;;19.31;100.00;100806.08;1712168;83;20666;-87
2022/07/06 03:14:40;;;;;;;;;;;;;;;19.35;100.00;100804.76;1711999;84;20533;-88
2022/07/06 03:17:07;;;;;;;;;;;;;;;19.41;100.00;100807.23;1712922;83;20175;-88
2022/07/06 03:19:34;;;;;;;;;;;;;;;19.48;100.00;100813.48;1712709;83;20171;-89
2022/07/06 03:22:29;;;;;;;;;;;;;;;19.57;100.00;100812.13;1712700;83;21143;-88
2022/07/06 03:24:56;;;;;;;;;;;;;;;19.64;100.00;100814.42;1718144;82;20163;-88
2022/07/06 03:27:23;;;;;;;;;;;;;;;19.72;100.00;100815.71;1715125;83;20203;-87
2022/07/06 03:29:50;;;;;;;;;;;;;;;19.80;100.00;100817.00;1712425;82;20207;-88
2022/07/06 03:32:18;;;;;;;;;;;;;;;19.89;100.00;100817.00;1711851;84;20147;-87
2022/07/06 03:34:45;;;;;;;;;;;;;;;20.00;100.00;100817.92;1725924;83;21127;-88
2022/07/06 03:37:12;;;;;;;;;;;;;;;20.10;100.00;100819.86;1716061;83;20176;-88
2022/07/06 03:39:41;;;;;;;;;;;;;;;20.20;100.00;100817.00;1711667;83;20135;-88
2022/07/06 03:42:09;;;;;;;;;;;;;;;20.30;100.00;100816.28;1713017;83;20164;-89
2022/07/06 03:44:36;;;;;;;;;;;;;;;20.38;100.00;100815.42;1714136;82;20132;-88
2022/07/06 03:47:04;;;;;;;;;;;;;;;20.48;100.00;100813.86;1713529;82;21161;-87
2022/07/06 03:49:30;;;;;;;;;;;;;;;20.56;100.00;100818.25;1712408;83;20227;-88
2022/07/06 03:51:59;;;;;;;;;;;;;;;20.67;100.00;100821.02;1712759;83;20533;-88
2022/07/06 03:54:26;;;;;;;;;;;;;;;20.80;100.00;100813.32;1711808;83;20176;-87
2022/07/06 03:56:55;;;;;;;;;;;;;;;20.96;100.00;100822.93;1708810;82;20146;-88
2022/07/06 03:59:22;;;;;;;;;;;;;;;21.10;100.00;100815.55;1703750;82;21141;-88
2022/07/06 04:01:49;;;;;;;;;;;;;;;21.24;100.00;100810.44;1707965;82;20148;-87
2022/07/06 04:04:17;;;;;;;;;;;;;;;21.39;100.00;100815.77;1711496;82;32461;-87
2022/07/06 04:06:45;;;;;;;;;;;;;;;21.53;100.00;100812.28;1711621;82;20587;-87
2022/07/06 04:09:14;;;;;;;;;;;;;;;21.67;100.00;100806.67;1716856;82;20199;-90
2022/07/06 04:11:41;;;;;;;;;;;;;;;21.80;100.00;100808.67;1712968;82;21126;-90
2022/07/06 04:14:08;;;;;;;;;;;;;;;21.96;100.00;100806.33;1717780;82;20178;-90
2022/07/06 04:16:36;;;;;;;;;;;;;;;22.11;100.00;100810.28;1717031;82;20307;-90
2022/07/06 04:19:03;;;;;;;;;;;;;;;22.24;100.00;100810.91;1719922;82;20172;-89
2022/07/06 04:21:30;;;;;;;;;;;;;;;22.38;100.00;100804.75;1718747;82;20183;-88
2022/07/06 04:23:58;;;;;;;;;;;;;;;22.51;100.00;100803.25;1722280;82;21095;-89
2022/07/06 04:26:25;;;;;;;;;;;;;;;22.65;100.00;100802.87;1713823;82;20145;-88
2022/07/06 04:28:51;;;;;;;;;;;;;;;22.78;100.00;100798.19;1721393;82;20507;-87
2022/07/06 04:31:19;;;;;;;;;;;;;;;22.88;100.00;100791.21;1713695;83;20178;-88
2022/07/06 04:33:46;;;;;;;;;;;;;;;22.96;100.00;100798.52;1724154;82;20577;-88
2022/07/06 04:36:14;;;;;;;;;;;;;;;23.02;100.00;100794.80;1727219;82;21168;-88
2022/07/06 04:38:42;;;;;;;;;;;;;;;23.09;100.00;100795.66;1713615;83;20165;-91
2022/07/06 04:41:19;;;;;;;;;;;;;;;23.17;100.00;100791.52;1714102;83;20146;-92
2022/07/06 04:43:46;;;;;;;;;;;;;;;23.27;100.00;100789.37;1730914;82;20165;-90
2022/07/06 04:46:16;;;;;;;;;;;;;;;23.40;100.00;100791.78;1743972;81;20163;-92
2022/07/06 04:48:44;;;;;;;;;;;;;;;23.54;100.00;100792.68;1758159;80;21180;-92
2022/07/06 04:51:14;;;;;;;;;;;;;;;23.68;100.00;100782.41;1727189;81;20161;-92
2022/07/06 04:53:41;;;;;;;;;;;;;;;23.82;100.00;100787.28;1744383;80;20205;-92
2022/07/06 04:56:49;;;;;;;;;;;;;;;23.96;100.00;100784.69;1730931;80;20197;-92
2022/07/06 04:59:17;;;;;;;;;;;;;;;24.05;100.00;100782.16;1693506;83;20252;-91
2022/07/06 05:02:21;;;;;;;;;;;;;;;24.17;100.00;100778.41;1737245;82;21958;-93
2022/07/06 05:04:49;;;;;;;;;;;;;;;24.28;100.00;100783.11;1695039;84;20150;-91
2022/07/06 05:07:17;;;;;;;;;;;;;;;24.38;100.00;100782.73;1719190;82;20135;-92
2022/07/06 05:09:43;;;;;;;;;;;;;;;24.44;100.00;100781.11;1712045;83;20170;-94
2022/07/06 05:12:10;;;;;;;;;;;;;;;24.51;100.00;100784.07;1725634;82;20667;-93
2022/07/06 05:14:37;;;;;;;;;;;;;;;24.59;100.00;100781.73;1699122;83;21140;-94
2022/07/06 05:17:06;;;;;;;;;;;;;;;24.71;100.00;100783.30;1715297;83;20175;-91
2022/07/06 05:19:33;;;;;;;;;;;;;;;24.84;100.00;100779.78;1723107;83;20250;-92
2022/07/06 05:22:02;;;;;;;;;;;;;;;24.98;100.00;100776.59;1711473;83;20208;-92
2022/07/06 05:24:33;;;;;;;;;;;;;;;25.10;100.00;100773.63;1707441;83;20499;-93
2022/07/06 05:27:01;;;;;;;;;;;;;;;25.26;100.00;100775.53;1688279;84;20725;-92
2022/07/06 05:29:28;;;;;;;;;;;;;;;25.40;100.00;100778.48;1719180;82;20141;-92
2022/07/06 05:31:56;;;;;;;;;;;;;;;25.51;100.00;100772.52;1722604;82;20435;-92
2022/07/06 05:34:30;;;;;;;;;;;;;;;25.65;100.00;100773.26;1712651;84;20173;-92
2022/07/06 05:36:57;;;;;;;;;;;;;;;25.77;100.00;100767.27;1709921;83;20162;-92
2022/07/06 05:43:17;;;;;;;;;;;;;;;26.03;100.00;100764.97;1708113;83;20148;-92
2022/07/06 05:45:44;;;;;;;;;;;;;;;26.20;100.00;100759.95;1707528;82;20147;-92
2022/07/06 05:50:59;;;;;;;;;;;;;;;26.48;100.00;100757.93;1742432;80;20187;-92
2022/07/06 05:53:26;;;;;;;;;;;;;;;26.61;100.00;100760.48;1750951;80;21788;-92
2022/07/06 05:59:46;;;;;;;;;;;;;;;26.83;100.00;100762.77;1735244;82;20187;-92
2022/07/06 06:02:46;;;;;;;;;;;;;;;27.06;100.00;100757.60;1734908;82;20159;-92
2022/07/06 06:13:37;;;;;;;;;;;;;;;27.63;100.00;100756.56;1735326;81;20195;-92
2022/07/06 06:28:19;;;;;;;;;;;;;;;28.29;100.00;100751.33;1731302;83;20180;-90
2022/07/06 06:42:42;;;;;;;;;;;;;;;28.84;100.00;100752.08;1763351;81;20134;-90
2022/07/06 06:53:41;;;;;;;;;;;;;;;29.21;100.00;100749.09;1730090;81;20156;-93
2022/07/06 07:08:02;;;;;;;;;;;;;;;29.75;91.39;100752.86;1771173;81;20533;-91
2022/07/06 07:14:28;;;;;;;;;;;;;;;30.09;89.15;100745.41;1770873;80;20133;-89
2022/07/06 07:16:55;;;;;;;;;;;;;;;30.27;85.04;100743.03;1761164;80;20483;-90
2022/07/06 07:19:22;;;;;;;;;;;;;;;30.34;83.71;100741.52;1751384;81;21098;-88
2022/07/06 07:21:49;;;;;;;;;;;;;;;30.45;86.16;100741.13;1757610;80;20156;-89
2022/07/06 07:24:16;;;;;;;;;;;;;;;30.60;84.55;100741.94;1745270;81;20232;-88
2022/07/06 07:26:43;;;;;;;;;;;;;;;30.72;82.52;100742.66;1741135;80;20161;-89
2022/07/06 07:29:10;;;;;;;;;;;;;;;30.85;80.12;100737.44;1748484;81;20494;-90
2022/07/06 07:31:36;;;;;;;;;;;;;;;30.98;74.54;100737.61;1743249;81;21137;-89
2022/07/06 07:34:03;;;;;;;;;;;;;;;31.05;71.92;100736.89;1746570;80;20179;-89
2022/07/06 07:36:30;;;;;;;;;;;;;;;31.12;69.55;100730.84;1749858;80;20178;-91
2022/07/06 07:38:57;;;;;;;;;;;;;;;31.20;73.61;100726.89;1748483;81;20198;-88
2022/07/06 07:41:24;;;;;;;;;;;;;;;31.33;63.65;100732.97;1745593;81;20181;-88
2022/07/06 07:43:50;;;;;;;;;;;;;;;31.36;60.81;100733.27;1746230;81;21130;-89
2022/07/06 07:46:18;;;;;;;;;;;;;;;31.41;58.90;100734.66;1742627;81;20181;-90
2022/07/06 07:48:45;;;;;;;;;;;;;;;31.45;56.32;100731.73;1743389;81;20142;-89
2022/07/06 07:51:12;;;;;;;;;;;;;;;31.49;59.27;100734.73;1705146;83;20167;-89
2022/07/06 07:53:39;;;;;;;;;;;;;;;31.57;54.63;100728.90;1709948;83;20142;-89
2022/07/06 07:56:06;;;;;;;;;;;;;;;31.69;53.75;100733.36;1709359;82;21140;-88
2022/07/06 07:58:32;;;;;;;;;;;;;;;31.84;54.82;100735.39;1737250;82;20191;-89
2022/07/06 08:01:00;;;;;;;;;;;;;;;31.92;53.78;100725.51;1754811;81;20153;-89
2022/07/06 08:03:27;;;;;;;;;;;;;;;32.01;50.04;100727.98;1735080;81;20206;-91
2022/07/06 08:05:54;;;;;;;;;;;;;;;32.09;49.87;100724.81;1738760;81;20174;-89
2022/07/06 08:08:22;;;;;;;;;;;;;;;32.21;45.91;100727.33;1718781;82;20163;-89
2022/07/06 08:10:50;;;;;;;;;;;;;;;32.30;45.21;100727.71;1742927;81;20129;-90
2022/07/06 08:13:16;;;;;;;;;;;;;;;32.36;43.82;100731.27;1747299;81;20156;-89
2022/07/06 08:15:43;;;;;;;;;;;;;;;32.39;45.76;100730.20;1746601;81;20515;-89
2022/07/06 08:18:11;;;;;;;;;;;;;;;32.48;43.42;100725.67;1718134;81;20197;-90
2022/07/06 08:20:37;;;;;;;;;;;;;;;32.60;44.58;100720.89;1722533;83;21160;-89
2022/07/06 08:23:05;;;;;;;;;;;;;;;32.72;45.89;100726.91;1716438;83;20182;-90
2022/07/06 08:25:32;;;;;;;;;;;;;;;32.84;47.27;100725.89;1733117;82;20524;-90
2022/07/06 08:28:00;;;;;;;;;;;;;;;32.94;45.44;100723.77;1742871;82;20139;-90
2022/07/06 08:30:26;;;;;;;;;;;;;;;33.02;45.44;100733.53;1742765;82;20167;-90
2022/07/06 08:32:53;;;;;;;;;;;;;;;33.12;44.45;100726.01;1732654;82;21167;-90
2022/07/06 08:35:20;;;;;;;;;;;;;;;33.23;45.97;100729.55;1712786;83;20138;-90
2022/07/06 08:37:47;;;;;;;;;;;;;;;33.30;42.53;100728.75;1713269;83;20131;-89
2022/07/06 08:40:15;;;;;;;;;;;;;;;33.33;42.14;100724.77;1713187;83;20539;-90
2022/07/06 08:42:42;;;;;;;;;;;;;;;33.37;41.09;100729.09;1713657;83;20177;-89
2022/07/06 08:45:09;;;;;;;;;;;;;;;33.35;42.50;100729.34;1713228;83;21814;-89
2022/07/06 08:47:37;;;;;;;;;;;;;;;33.44;43.48;100726.95;1728053;82;20133;-89
2022/07/06 08:50:06;;;;;;;;;;;;;;;33.56;40.86;100728.05;1772101;81;20145;-89
2022/07/06 08:52:34;;;;;;;;;;;;;;;33.64;41.24;100720.23;1782831;80;20580;-89
2022/07/06 08:55:03;;;;;;;;;;;;;;;33.71;40.29;100721.33;1777610;80;20157;-89
2022/07/06 08:57:30;;;;;;;;;;;;;;;33.79;40.91;100711.86;1762284;81;21909;-92
2022/07/06 08:59:57;;;;;;;;;;;;;;;33.91;41.28;100720.55;1752342;80;20131;-90
2022/07/06 09:02:26;;;;;;;;;;;;;;;33.99;40.78;100714.34;1731499;82;20145;-90
2022/07/06 09:04:56;;;;;;;;;;;;;;;34.00;40.65;100715.41;1729867;83;20161;-90
2022/07/06 09:07:23;;;;;;;;;;;;;;;34.08;42.63;100714.07;1729682;83;20149;-90
2022/07/06 09:09:51;;;;;;;;;;;;;;;34.15;38.39;100713.77;1729787;83;21214;-91
2022/07/06 09:12:17;;;;;;;;;;;;;;;34.19;36.33;100717.02;1700434;83;20988;-90
2022/07/06 09:14:45;;;;;;;;;;;;;;;34.21;35.89;100708.66;1709040;82;20202;-91
2022/07/06 09:17:12;;;;;;;;;;;;;;;34.25;37.37;100707.81;1742380;81;20852;-89
2022/07/06 09:19:39;;;;;;;;;;;;;;;34.32;36.52;100707.54;1712884;81;20174;-90
2022/07/06 09:22:06;;;;;;;;;;;;;;;34.42;34.60;100709.44;1699474;84;21145;-90
2022/07/06 09:24:33;;;;;;;;;;;;;;;34.43;35.00;100710.53;1719664;81;20175;-90
2022/07/06 09:27:00;;;;;;;;;;;;;;;34.44;32.80;100702.70;1697283;83;20447;-89
2022/07/06 09:29:31;;;;;;;;;;;;;;;34.46;31.96;100702.94;1729959;82;20172;-90
2022/07/06 09:32:01;;;;;;;;;;;;;;;34.46;31.75;100705.12;1718334;81;20147;-90
2022/07/06 09:34:42;;;;;;;;;;;;;;;34.48;32.51;100697.55;1699077;84;21110;-89
2022/07/06 09:37:09;;;;;;;;;;;;;;;34.54;33.34;100697.80;1705378;81;20211;-89
2022/07/06 09:39:36;;;;;;;;;;;;;;;34.56;31.94;100694.28;1718679;81;20169;-89
2022/07/06 09:42:04;;;;;;;;;;;;;;;34.49;32.40;100695.12;1733091;81;20156;-90
2022/07/06 09:44:34;;;;;;;;;;;;;;;34.47;33.37;100691.88;1713120;83;20176;-89
2022/07/06 09:47:04;;;;;;;;;;;;;;;34.56;34.40;100702.39;1703815;83;21170;-90
2022/07/06 09:49:31;;;;;;;;;;;;;;;34.70;33.42;100699.09;1707971;83;20173;-89
2022/07/06 09:51:59;;;;;;;;;;;;;;;34.77;33.11;100696.90;1708297;83;20180;-91
2022/07/06 09:54:27;;;;;;;;;;;;;;;34.86;32.44;100698.48;1716105;83;20143;-90
2022/07/06 09:56:55;;;;;;;;;;;;;;;34.90;31.65;100695.53;1720118;82;20220;-88
2022/07/06 09:59:29;;;;;;;;;;;;;;;34.95;32.74;100691.99;1719428;83;21165;-89
2022/07/06 10:01:58;;;;;;;;;;;;;;;34.99;31.98;100688.98;1719139;81;20192;-90
2022/07/06 10:04:26;;;;;;;;;;;;;;;34.94;32.12;100686.31;1719149;83;20164;-91
2022/07/06 10:06:53;;;;;;;;;;;;;;;34.97;32.52;100683.06;1719217;83;20275;-89
2022/07/06 10:09:24;;;;;;;;;;;;;;;35.01;33.05;100680.05;1719545;81;20185;-91
2022/07/06 10:11:54;;;;;;;;;;;;;;;35.09;33.74;100675.41;1727101;81;21185;-91
2022/07/06 10:14:24;;;;;;;;;;;;;;;35.21;33.07;100677.22;1731503;82;20168;-90
2022/07/06 10:16:52;;;;;;;;;;;;;;;35.27;32.72;100679.91;1719490;82;20157;-90
2022/07/06 10:19:21;;;;;;;;;;;;;;;35.36;33.33;100680.38;1728689;81;20488;-90
2022/07/06 10:21:48;;;;;;;;;;;;;;;35.43;30.78;100678.75;1724574;81;20430;-90
2022/07/06 10:24:15;;;;;;;;;;;;;;;35.42;32.07;100677.13;1731553;82;21125;-90
2022/07/06 10:26:42;;;;;;;;;;;;;;;35.47;32.00;100679.00;1728074;81;20427;-90
2022/07/06 10:29:10;;;;;;;;;;;;;;;35.53;30.67;100673.24;1725024;81;20137;-90
2022/07/06 10:31:39;;;;;;;;;;;;;;;35.48;30.40;100676.00;1729304;82;20237;-90
2022/07/06 10:34:09;;;;;;;;;;;;;;;35.49;33.13;100670.06;1734555;82;20583;-91
2022/07/06 10:36:41;;;;;;;;;;;;;;;35.60;31.85;100669.43;1730366;82;21262;-92
2022/07/06 10:41:55;;;;;;;;;;;;;;;35.78;30.84;100663.86;1727956;82;20191;-91
2022/07/06 10:44:24;;;;;;;;;;;;;;;35.77;32.39;100664.95;1723673;82;21201;-90
2022/07/06 10:46:54;;;;;;;;;;;;;;;35.78;30.06;100665.21;1719699;83;20216;-93
2022/07/06 10:49:21;;;;;;;;;;;;;;;35.75;30.78;100669.30;1728638;82;21142;-91
2022/07/06 10:51:49;;;;;;;;;;;;;;;35.71;31.30;100661.47;1724823;82;20203;-91
2022/07/06 10:54:18;;;;;;;;;;;;;;;35.67;29.77;100656.38;1719638;83;20145;-90
2022/07/06 10:56:53;;;;;;;;;;;;;;;35.62;30.09;100657.75;1719463;83;20184;-90
2022/07/06 10:59:21;;;;;;;;;;;;;;;35.67;31.41;100657.73;1725838;81;20208;-90
2022/07/06 11:02:16;;;;;;;;;;;;;;;35.75;29.57;100646.28;1721367;82;21184;-90
2022/07/06 11:04:44;;;;;;;;;;;;;;;35.82;30.65;100646.75;1731047;81;20168;-91
2022/07/06 11:07:13;;;;;;;;;;;;;;;35.86;29.53;100640.22;1725007;81;20183;-91
2022/07/06 11:09:49;;;;;;;;;;;;;;;35.92;29.08;100641.02;1726345;82;20132;-90
2022/07/06 11:12:20;;;;;;;;;;;;;;;35.95;29.92;100639.89;1723070;82;20163;-91
2022/07/06 11:14:49;;;;;;;;;;;;;;;35.99;29.52;100640.13;1725760;82;20223;-91
2022/07/06 11:17:17;;;;;;;;;;;;;;;35.95;27.39;100637.72;1724990;81;20180;-91
2022/07/06 11:19:57;;;;;;;;;;;;;;;35.91;26.88;100631.27;1719427;83;20231;-90
2022/07/06 11:22:24;;;;;;;;;;;;;;;35.89;26.96;100628.00;1719574;83;20225;-90
2022/07/06 11:24:55;;;;;;;;;;;;;;;35.88;27.73;100624.50;1719248;83;20382;-90
2022/07/06 11:27:23;;;;;;;;;;;;;;;35.93;26.40;100621.77;1734543;82;21187;-91
2022/07/06 11:29:50;;;;;;;;;;;;;;;35.96;27.94;100625.80;1731750;82;20206;-92
2022/07/06 11:32:20;;;;;;;;;;;;;;;35.98;26.07;100620.91;1719670;83;20438;-92
2022/07/06 11:34:48;;;;;;;;;;;;;;;36.03;27.75;100619.48;1725749;82;20315;-92
2022/07/06 11:37:15;;;;;;;;;;;;;;;36.08;26.35;100615.39;1719631;83;20174;-93
2022/07/06 11:39:43;;;;;;;;;;;;;;;36.10;25.12;100615.88;1719495;83;21144;-93
2022/07/06 11:42:13;;;;;;;;;;;;;;;36.07;25.23;100613.77;1721937;81;20159;-91
2022/07/06 11:44:41;;;;;;;;;;;;;;;36.05;25.55;100609.73;1723915;81;20152;-90
2022/07/06 11:47:10;;;;;;;;;;;;;;;36.06;24.05;100608.09;1719373;83;20141;-90
2022/07/06 11:49:38;;;;;;;;;;;;;;;36.14;24.51;100602.03;1725895;82;20496;-90
2022/07/06 11:52:11;;;;;;;;;;;;;;;36.25;25.43;100604.63;1736659;82;21118;-90
2022/07/06 11:54:40;;;;;;;;;;;;;;;36.30;24.43;100596.43;1719361;83;20448;-91
2022/07/06 11:57:10;;;;;;;;;;;;;;;36.36;25.12;100600.69;1719158;83;20141;-91
2022/07/06 11:59:39;;;;;;;;;;;;;;;36.39;24.59;100601.47;1719288;83;20204;-91
2022/07/06 12:02:14;;;;;;;;;;;;;;;36.41;25.33;100597.96;1725829;82;20235;-93
2022/07/06 12:04:45;;;;;;;;;;;;;;;36.42;25.85;100593.33;1750468;81;20154;-90
2022/07/06 12:07:16;;;;;;;;;;;;;;;36.42;24.96;100592.77;1734832;81;20141;-91
2022/07/06 12:09:45;;;;;;;;;;;;;;;36.47;25.82;100590.55;1727147;82;20172;-92
2022/07/06 12:12:13;;;;;;;;;;;;;;;36.57;24.71;100592.34;1735464;81;20201;-91
2022/07/06 12:14:42;;;;;;;;;;;;;;;36.55;26.44;100591.81;1723069;81;20180;-93
2022/07/06 12:17:12;;;;;;;;;;;;;;;36.57;25.85;100588.27;1719452;83;21815;-91
2022/07/06 12:19:40;;;;;;;;;;;;;;;36.65;25.60;100589.51;1726132;81;20245;-91
2022/07/06 12:22:08;;;;;;;;;;;;;;;36.72;27.44;100582.64;1728815;81;20168;-91
2022/07/06 12:24:37;;;;;;;;;;;;;;;36.74;25.25;100583.13;1725960;82;20171;-91
2022/07/06 12:27:13;;;;;;;;;;;;;;;36.64;25.60;100576.52;1719476;83;20137;-91
2022/07/06 12:29:41;;;;;;;;;;;;;;;36.56;26.37;100576.60;1719399;83;21176;-90
2022/07/06 12:32:22;;;;;;;;;;;;;;;36.61;25.58;100569.78;1731250;82;20424;-91
2022/07/06 12:35:04;;;;;;;;;;;;;;;36.62;26.10;100570.56;1725477;82;20162;-90
2022/07/06 12:37:31;;;;;;;;;;;;;;;36.68;26.25;100568.03;1724155;82;20176;-90
2022/07/06 12:39:58;;;;;;;;;;;;;;;36.73;26.85;100563.91;1723547;82;20202;-90
2022/07/06 12:42:26;;;;;;;;;;;;;;;36.75;26.08;100562.25;1730885;82;21178;-92
2022/07/06 12:44:53;;;;;;;;;;;;;;;36.72;26.87;100559.59;1730761;82;20159;-91
2022/07/06 12:47:23;;;;;;;;;;;;;;;36.75;26.93;100558.98;1726554;82;20240;-91
2022/07/06 12:50:10;;;;;;;;;;;;;;;36.83;26.42;100557.52;1723755;82;20191;-91
2022/07/06 12:52:37;;;;;;;;;;;;;;;36.92;26.99;100556.33;1721064;82;20491;-91
2022/07/06 12:55:05;;;;;;;;;;;;;;;37.02;27.24;100556.17;1742953;82;21140;-90
2022/07/06 12:57:47;;;;;;;;;;;;;;;37.13;27.89;100555.45;1746629;82;20678;-91
2022/07/06 13:00:16;;;;;;;;;;;;;;;37.28;27.51;100552.22;1729748;82;20174;-91
2022/07/06 13:02:45;;;;;;;;;;;;;;;37.35;28.35;100550.75;1732318;82;20166;-93
2022/07/06 13:05:14;;;;;;;;;;;;;;;37.39;27.25;100547.70;1726597;81;20215;-91
2022/07/06 13:07:47;;;;;;;;;;;;;;;37.50;27.96;100542.11;1741611;81;22081;-90
2022/07/06 13:10:15;;;;;;;;;;;;;;;37.63;29.00;100535.87;1721674;81;20160;-91
2022/07/06 13:12:44;;;;;;;;;;;;;;;37.76;28.44;100536.20;1719414;83;20144;-90
2022/07/06 13:15:11;;;;;;;;;;;;;;;37.83;27.93;100536.04;1720646;82;20153;-91
2022/07/06 13:17:39;;;;;;;;;;;;;;;37.85;27.55;100536.58;1742037;81;20149;-91
2022/07/06 13:20:09;;;;;;;;;;;;;;;37.89;28.20;100525.91;1721406;81;21895;-93
2022/07/06 13:22:35;;;;;;;;;;;;;;;37.93;27.06;100524.21;1734816;81;20186;-93
2022/07/06 13:25:03;;;;;;;;;;;;;;;37.94;27.89;100515.50;1731720;82;20202;-92
2022/07/06 13:27:30;;;;;;;;;;;;;;;37.94;27.96;100517.64;1730372;81;20153;-92
2022/07/06 13:29:57;;;;;;;;;;;;;;;37.94;26.83;100509.50;1720681;81;20172;-92
2022/07/06 13:32:25;;;;;;;;;;;;;;;37.95;27.03;100508.95;1727694;82;21164;-92
2022/07/06 13:34:53;;;;;;;;;;;;;;;37.93;26.99;100511.17;1725386;82;20184;-91
2022/07/06 13:37:23;;;;;;;;;;;;;;;37.94;28.42;100507.34;1725522;82;20149;-91
2022/07/06 13:39:50;;;;;;;;;;;;;;;37.97;27.11;100502.11;1723306;82;20177;-91
2022/07/06 13:42:17;;;;;;;;;;;;;;;37.93;27.92;100502.48;1732699;82;20184;-91
2022/07/06 13:44:44;;;;;;;;;;;;;;;37.95;27.86;100504.31;1721485;83;21152;-90
2022/07/06 13:47:10;;;;;;;;;;;;;;;37.90;25.85;100496.28;1747794;81;20143;-91
2022/07/06 13:49:38;;;;;;;;;;;;;;;37.80;26.43;100497.81;1739360;82;20140;-91
2022/07/06 13:52:06;;;;;;;;;;;;;;;37.68;27.16;100499.67;1718182;82;20458;-90
2022/07/06 13:54:34;;;;;;;;;;;;;;;37.58;28.13;100494.46;1714078;82;20177;-90
2022/07/06 13:57:05;;;;;;;;;;;;;;;37.54;29.02;100496.95;1717063;82;20852;-91
2022/07/06 13:59:33;;;;;;;;;;;;;;;37.61;29.09;100490.59;1720400;82;20153;-90
2022/07/06 14:02:00;;;;;;;;;;;;;;;37.69;27.93;100497.21;1714583;83;20225;-91
2022/07/06 14:04:26;;;;;;;;;;;;;;;37.62;26.05;100488.09;1715646;83;20212;-91
2022/07/06 14:06:53;;;;;;;;;;;;;;;37.39;26.67;100486.62;1712544;83;20180;-91
2022/07/06 14:09:20;;;;;;;;;;;;;;;37.29;27.42;100478.66;1710806;83;21104;-90
2022/07/06 14:11:47;;;;;;;;;;;;;;;37.25;27.12;100477.64;1722482;83;20144;-91
2022/07/06 14:14:13;;;;;;;;;;;;;;;37.25;26.70;100469.50;1689540;83;20136;-90
2022/07/06 14:16:40;;;;;;;;;;;;;;;37.24;26.93;100472.77;1705280;82;20371;-92
2022/07/06 14:19:09;;;;;;;;;;;;;;;37.18;25.34;100474.52;1709485;82;20465;-92
2022/07/06 14:21:36;;;;;;;;;;;;;;;37.00;27.29;100479.69;1703815;83;21184;-90
2022/07/06 14:24:03;;;;;;;;;;;;;;;36.84;26.99;100476.41;1685421;83;20172;-91
2022/07/06 14:26:33;;;;;;;;;;;;;;;36.86;28.51;100476.11;1690266;84;20273;-90
2022/07/06 14:29:00;;;;;;;;;;;;;;;36.93;27.97;100470.60;1717866;83;20186;-91
2022/07/06 14:31:27;;;;;;;;;;;;;;;37.00;28.71;100465.34;1704586;83;20173;-91
2022/07/06 14:33:54;;;;;;;;;;;;;;;36.99;27.62;100469.94;1701961;83;21749;-91
2022/07/06 14:36:21;;;;;;;;;;;;;;;36.97;28.89;100465.92;1687055;83;20483;-91
2022/07/06 14:38:47;;;;;;;;;;;;;;;36.91;28.74;100466.55;1710030;83;20165;-90
2022/07/06 14:41:14;;;;;;;;;;;;;;;36.87;28.74;100459.53;1733325;82;20214;-90
2022/07/06 14:43:41;;;;;;;;;;;;;;;36.77;27.42;100460.52;1730978;82;20155;-91
2022/07/06 14:46:08;;;;;;;;;;;;;;;36.71;28.24;100463.05;1730110;82;21181;-90
2022/07/06 14:48:35;;;;;;;;;;;;;;;36.68;28.26;100460.13;1729433;82;20159;-90
2022/07/06 14:51:03;;;;;;;;;;;;;;;36.64;28.24;100450.42;1732088;82;20136;-91
2022/07/06 14:53:30;;;;;;;;;;;;;;;36.60;28.55;100452.10;1727062;82;20192;-91